Time;durP1;ratioP1;P1;durP2;ratioP2;P2;SDS_P1;SDS_P2;PMS_P1;PMS_P2;Temp;Humidity;BMP_temperature;BMP_pressure;BME280_temperature;BME280_humidity;BME280_pressure;Samples;Min_cycle;Max_cycle;Signal;HPM_P1;HPM_P2
2024/02/27 00:01:44;;;;;;;17.73;13.93;;;;;;;5.48;100.00;101596.63;7694004;22;20438;-68
2024/02/27 00:05:05;;;;;;;17.57;13.93;;;;;;;5.45;100.00;101602.13;7740586;22;20231;-68
2024/02/27 00:08:26;;;;;;;15.90;13.00;;;;;;;5.44;100.00;101604.91;7719237;22;20507;-69
2024/02/27 00:11:48;;;;;;;17.43;12.60;;;;;;;5.42;100.00;101601.44;7712107;22;20218;-68
2024/02/27 00:15:10;;;;;;;14.30;11.93;;;;;;;5.37;100.00;101612.38;7738727;22;20230;-68
2024/02/27 00:18:31;;;;;;;17.00;12.87;;;;;;;5.39;100.00;101610.50;7715438;22;20494;-68
2024/02/27 00:21:53;;;;;;;13.97;12.50;;;;;;;5.42;100.00;101609.47;7731632;22;20222;-69
2024/02/27 00:25:15;;;;;;;17.00;14.00;;;;;;;5.34;100.00;101611.72;7733049;22;20250;-69
2024/02/27 00:28:37;;;;;;;17.90;14.97;;;;;;;5.38;100.00;101613.25;7740909;22;20206;-69
2024/02/27 00:31:58;;;;;;;17.37;13.97;;;;;;;5.46;100.00;101619.91;7737078;22;20640;-68
2024/02/27 00:35:19;;;;;;;17.67;14.37;;;;;;;5.47;100.00;101626.97;7758874;22;20210;-69
2024/02/27 00:38:39;;;;;;;16.70;13.03;;;;;;;5.46;100.00;101633.28;7740800;22;20218;-67
2024/02/27 00:42:02;;;;;;;16.03;14.00;;;;;;;5.44;100.00;101626.28;7736928;22;20215;-69
2024/02/27 00:45:24;;;;;;;17.20;12.93;;;;;;;5.41;100.00;101632.66;7739043;22;20211;-70
2024/02/27 00:48:45;;;;;;;13.47;12.13;;;;;;;5.39;100.00;101629.19;7737107;22;20226;-69
2024/02/27 00:52:07;;;;;;;16.83;13.50;;;;;;;5.41;100.00;101635.31;7737168;22;20214;-69
2024/02/27 00:55:28;;;;;;;16.90;13.10;;;;;;;5.29;100.00;101630.66;7737177;22;20215;-69
2024/02/27 00:58:49;;;;;;;17.33;14.97;;;;;;;5.47;100.00;101626.09;7740932;22;20220;-70
2024/02/27 01:02:11;;;;;;;14.90;13.30;;;;;;;5.38;100.00;101623.94;7757752;22;20207;-69
2024/02/27 01:05:32;;;;;;;17.30;14.67;;;;;;;5.32;100.00;101619.78;7708163;22;20215;-69
2024/02/27 01:08:53;;;;;;;17.70;13.47;;;;;;;5.32;100.00;101624.28;7740944;22;20286;-68
2024/02/27 01:12:14;;;;;;;18.40;13.83;;;;;;;5.38;100.00;101632.81;7733900;22;20502;-70
2024/02/27 01:15:35;;;;;;;17.37;14.77;;;;;;;5.45;100.00;101644.91;7731251;22;20790;-68
2024/02/27 01:18:57;;;;;;;15.03;13.43;;;;;;;5.47;100.00;101639.47;7737759;22;20215;-68
2024/02/27 01:22:26;;;;;;;17.47;13.13;;;;;;;5.42;100.00;101647.72;7734332;22;20215;-69
2024/02/27 01:25:47;;;;;;;18.13;14.67;;;;;;;5.40;100.00;101656.81;7736423;22;20244;-69
2024/02/27 01:29:08;;;;;;;18.10;14.47;;;;;;;5.49;100.00;101662.50;7743191;22;20238;-68
2024/02/27 01:32:28;;;;;;;16.97;15.07;;;;;;;5.45;100.00;101649.38;7729892;22;20207;-69
2024/02/27 01:35:51;;;;;;;17.87;13.77;;;;;;;5.37;100.00;101652.47;7732921;22;20222;-68
2024/02/27 01:39:12;;;;;;;17.93;13.07;;;;;;;5.31;100.00;101652.81;7741426;22;20242;-68
2024/02/27 01:42:33;;;;;;;15.53;13.77;;;;;;;5.34;100.00;101651.81;7733320;22;20218;-69
2024/02/27 01:46:04;;;;;;;12.50;11.20;;;;;;;5.26;100.00;101654.00;7728309;22;20498;-68
2024/02/27 01:49:26;;;;;;;14.13;12.57;;;;;;;5.32;100.00;101661.72;7740209;22;20215;-69
2024/02/27 01:52:49;;;;;;;15.13;13.43;;;;;;;5.36;100.00;101660.59;7732025;22;20542;-69
2024/02/27 01:56:12;;;;;;;17.10;14.00;;;;;;;5.51;100.00;101662.41;7729656;22;20211;-69
2024/02/27 01:59:33;;;;;;;16.63;14.97;;;;;;;5.54;100.00;101664.94;7741186;22;20215;-69
2024/02/27 02:02:54;;;;;;;17.20;14.53;;;;;;;5.66;100.00;101662.44;7726300;22;20211;-68
2024/02/27 02:06:17;;;;;;;16.03;14.13;;;;;;;5.65;100.00;101670.56;7730998;22;20313;-69
2024/02/27 02:09:39;;;;;;;17.80;14.43;;;;;;;5.43;100.00;101664.66;7764563;22;20214;-68
2024/02/27 02:13:00;;;;;;;16.73;14.37;;;;;;;5.44;100.00;101666.38;7753529;22;20219;-69
2024/02/27 02:16:21;;;;;;;16.67;13.87;;;;;;;5.50;100.00;101674.94;7735053;22;20239;-69
2024/02/27 02:19:42;;;;;;;19.30;16.33;;;;;;;5.58;100.00;101672.69;7741678;22;20214;-69
2024/02/27 02:23:05;;;;;;;18.27;15.00;;;;;;;5.71;100.00;101669.34;7734487;22;20306;-68
2024/02/27 02:26:28;;;;;;;18.40;15.37;;;;;;;5.68;100.00;101668.56;7733800;22;20294;-69
2024/02/27 02:29:50;;;;;;;18.47;14.03;;;;;;;5.63;100.00;101681.31;7744830;22;20286;-69
2024/02/27 02:33:12;;;;;;;16.97;14.10;;;;;;;5.53;100.00;101674.75;7717716;22;20207;-67
2024/02/27 02:36:33;;;;;;;16.90;13.90;;;;;;;5.41;100.00;101682.59;7735009;22;20219;-67
2024/02/27 02:39:57;;;;;;;16.17;13.80;;;;;;;5.49;100.00;101680.34;7743644;22;20219;-69
2024/02/27 02:43:18;;;;;;;16.50;14.20;;;;;;;5.46;100.00;101678.72;7743227;22;20689;-69
2024/02/27 02:46:39;;;;;;;17.50;15.03;;;;;;;5.39;100.00;101685.34;7737876;22;20933;-68
2024/02/27 02:50:13;;;;;;;18.17;16.27;;;;;;;5.41;100.00;101680.78;7740691;23;20218;-68
2024/02/27 02:53:35;;;;;;;16.63;13.43;;;;;;;5.41;100.00;101685.25;7742842;23;20215;-67
2024/02/27 02:56:57;;;;;;;19.97;14.90;;;;;;;5.47;100.00;101682.25;7719043;23;20215;-68
2024/02/27 03:00:19;;;;;;;17.27;14.00;;;;;;;5.45;100.00;101689.47;7737010;22;20207;-68
2024/02/27 03:03:40;;;;;;;16.83;15.20;;;;;;;5.48;100.00;101683.97;7718223;22;20211;-68
2024/02/27 03:07:01;;;;;;;16.73;15.00;;;;;;;5.46;100.00;101689.44;7732730;22;20271;-69
2024/02/27 03:10:21;;;;;;;19.63;15.50;;;;;;;5.42;100.00;101695.03;7733853;22;20816;-69
2024/02/27 03:13:45;;;;;;;18.00;16.10;;;;;;;5.60;100.00;101694.00;7745798;22;20214;-69
2024/02/27 03:17:06;;;;;;;16.30;14.70;;;;;;;5.54;100.00;101710.38;7731620;22;20207;-69
2024/02/27 03:20:27;;;;;;;15.53;13.27;;;;;;;5.57;100.00;101716.41;7730511;22;20211;-68
2024/02/27 03:23:48;;;;;;;18.20;16.20;;;;;;;5.53;100.00;101716.66;7741448;22;20449;-67
2024/02/27 03:27:09;;;;;;;15.07;13.57;;;;;;;5.56;100.00;101716.50;7735594;22;20287;-68
2024/02/27 03:30:31;;;;;;;18.03;13.20;;;;;;;5.56;100.00;101716.50;7725333;22;20215;-68
2024/02/27 03:33:52;;;;;;;16.30;14.57;;;;;;;5.60;100.00;101704.69;7741038;22;20234;-68
2024/02/27 03:37:13;;;;;;;15.43;13.23;;;;;;;5.50;100.00;101707.03;7733784;22;20203;-68
2024/02/27 03:40:33;;;;;;;21.90;14.83;;;;;;;5.51;100.00;101714.09;7731749;22;20705;-69
2024/02/27 03:43:54;;;;;;;17.60;13.60;;;;;;;5.54;100.00;101713.06;7741884;22;20312;-70
2024/02/27 03:47:17;;;;;;;14.87;13.00;;;;;;;5.41;100.00;101718.22;7728644;22;20569;-69
2024/02/27 03:50:38;;;;;;;18.20;14.97;;;;;;;5.38;100.00;101725.53;7732759;22;20219;-69
2024/02/27 03:53:58;;;;;;;12.33;9.97;;;;;;;5.25;100.00;101732.47;7741803;22;20215;-68
2024/02/27 03:57:20;;;;;;;13.03;11.60;;;;;;;5.23;100.00;101734.38;7733365;22;20206;-68
2024/02/27 04:00:41;;;;;;;12.20;11.00;;;;;;;5.11;100.00;101730.50;7724966;22;20219;-68
2024/02/27 04:04:03;;;;;;;14.80;11.50;;;;;;;5.20;100.00;101724.69;7739076;22;20211;-68
2024/02/27 04:07:24;;;;;;;16.67;11.23;;;;;;;5.25;100.00;101745.84;7733978;22;20207;-68
2024/02/27 04:10:45;;;;;;;13.83;12.40;;;;;;;5.31;100.00;101748.19;7730058;22;20211;-68
2024/02/27 04:14:07;;;;;;;15.80;13.40;;;;;;;5.39;100.00;101753.97;7743025;22;20208;-68
2024/02/27 04:17:27;;;;;;;15.00;12.63;;;;;;;5.41;100.00;101744.94;7722880;22;20207;-68
2024/02/27 04:20:50;;;;;;;14.93;12.33;;;;;;;5.47;100.00;101759.78;7751610;22;20223;-69
2024/02/27 04:24:11;;;;;;;13.93;11.83;;;;;;;5.43;100.00;101753.75;7741421;22;20215;-69
2024/02/27 04:27:31;;;;;;;14.87;12.60;;;;;;;5.38;100.00;101752.28;7732246;22;20215;-69
2024/02/27 04:30:52;;;;;;;13.63;11.33;;;;;;;5.42;100.00;101757.34;7752496;22;20222;-68
2024/02/27 04:34:13;;;;;;;13.47;10.30;;;;;;;5.39;100.00;101751.31;7739036;22;20211;-68
2024/02/27 04:37:35;;;;;;;12.30;11.10;;;;;;;5.33;100.00;101754.31;7730313;22;20219;-68
2024/02/27 04:40:56;;;;;;;13.47;11.27;;;;;;;5.36;100.00;101749.66;7729635;22;20219;-69
2024/02/27 04:44:20;;;;;;;14.77;12.67;;;;;;;5.45;100.00;101745.63;7740940;22;20816;-69
2024/02/27 04:47:41;;;;;;;13.87;11.00;;;;;;;5.36;100.00;101752.34;7725849;22;20215;-69
2024/02/27 04:51:01;;;;;;;14.23;10.73;;;;;;;5.27;100.00;101746.63;7730181;22;20211;-68
2024/02/27 04:54:23;;;;;;;13.37;12.00;;;;;;;5.14;100.00;101746.41;7760917;22;20219;-68
2024/02/27 04:57:44;;;;;;;13.30;11.00;;;;;;;5.25;100.00;101743.16;7729400;22;20211;-68
2024/02/27 05:01:05;;;;;;;14.50;12.97;;;;;;;5.20;100.00;101740.72;7736496;22;20211;-69
2024/02/27 05:04:26;;;;;;;14.93;12.00;;;;;;;5.25;100.00;101744.03;7739811;22;20771;-67
2024/02/27 05:07:47;;;;;;;14.87;12.93;;;;;;;5.19;100.00;101748.84;7734516;22;20215;-68
2024/02/27 05:11:09;;;;;;;15.70;12.73;;;;;;;5.15;100.00;101758.84;7735893;22;20210;-69
2024/02/27 05:14:30;;;;;;;17.43;13.33;;;;;;;5.18;100.00;101764.00;7741212;22;20211;-69
2024/02/27 05:17:51;;;;;;;19.70;16.93;;;;;;;5.14;100.00;101759.75;7728289;22;20256;-68
2024/02/27 05:21:12;;;;;;;13.50;12.17;;;;;;;5.26;100.00;101748.41;7731352;22;20211;-68
2024/02/27 05:24:33;;;;;;;15.10;12.00;;;;;;;5.13;100.00;101758.03;7738441;22;20436;-68
2024/02/27 05:27:55;;;;;;;15.90;11.13;;;;;;;5.11;100.00;101767.09;7733013;22;20458;-68
2024/02/27 05:31:26;;;;;;;14.27;12.77;;;;;;;5.11;100.00;101767.09;7753907;22;20214;-68
2024/02/27 05:34:47;;;;;;;14.13;12.57;;;;;;;5.11;100.00;101757.25;7746850;22;20214;-68
2024/02/27 05:38:08;;;;;;;13.60;12.00;;;;;;;5.12;100.00;101755.44;7731605;22;20305;-68
2024/02/27 05:41:28;;;;;;;12.80;11.10;;;;;;;5.10;100.00;101762.66;7730747;22;20223;-69
2024/02/27 05:44:50;;;;;;;12.93;11.33;;;;;;;5.15;100.00;101763.31;7757662;22;20226;-68
2024/02/27 05:48:11;;;;;;;13.77;12.47;;;;;;;5.21;100.00;101768.34;7733790;22;20570;-69
2024/02/27 05:51:32;;;;;;;13.30;12.00;;;;;;;5.05;100.00;101768.25;7730858;22;20294;-68
2024/02/27 05:54:53;;;;;;;13.67;12.27;;;;;;;5.11;100.00;101762.59;7733640;22;20210;-68
2024/02/27 05:58:14;;;;;;;12.60;11.27;;;;;;;5.11;100.00;101767.09;7729773;22;20207;-68
2024/02/27 06:01:37;;;;;;;15.90;12.03;;;;;;;5.19;100.00;101775.56;7724885;22;20495;-68
2024/02/27 06:04:58;;;;;;;14.80;13.23;;;;;;;5.21;100.00;101776.34;7738151;22;20554;-68
2024/02/27 06:08:20;;;;;;;16.17;13.43;;;;;;;5.39;100.00;101784.25;7734832;22;20207;-68
2024/02/27 06:11:41;;;;;;;20.03;15.80;;;;;;;5.39;100.00;101788.75;7733531;22;20246;-68
2024/02/27 06:15:03;;;;;;;16.13;13.20;;;;;;;5.32;100.00;101801.56;7739095;22;20222;-68
2024/02/27 06:18:25;;;;;;;13.73;12.27;;;;;;;5.32;100.00;101793.53;7715021;22;20211;-68
2024/02/27 06:25:25;;;;;;;15.37;12.40;;;;;;;5.26;100.00;101806.34;7734635;22;20207;-69
2024/02/27 06:28:47;;;;;;;16.47;12.10;;;;;;;5.28;100.00;101801.78;7739267;22;20223;-67
2024/02/27 06:32:10;;;;;;;11.93;10.73;;;;;;;5.33;100.00;101805.09;7722701;22;20211;-69
2024/02/27 06:35:32;;;;;;;13.57;12.20;;;;;;;5.27;100.00;101808.97;7727831;22;20211;-67
2024/02/27 06:38:56;;;;;;;12.53;10.87;;;;;;;5.17;100.00;101815.75;7737632;22;20215;-69
2024/02/27 06:42:19;;;;;;;13.40;11.67;;;;;;;5.07;100.00;101826.97;7729698;22;20215;-69
2024/02/27 06:45:40;;;;;;;14.60;12.60;;;;;;;5.00;100.00;101826.41;7721385;22;20458;-68
2024/02/27 06:49:03;;;;;;;14.97;11.77;;;;;;;5.09;100.00;101838.44;7737021;22;20554;-67
2024/02/27 06:52:26;;;;;;;12.53;11.23;;;;;;;5.07;100.00;101843.84;7708548;22;20601;-67
2024/02/27 06:55:48;;;;;;;13.43;12.03;;;;;;;5.15;100.00;101840.81;7690634;22;20276;-67
2024/02/27 06:59:09;;;;;;;13.33;11.97;;;;;;;5.29;100.00;101852.53;7741740;22;20207;-67
2024/02/27 07:02:29;;;;;;;13.53;11.67;;;;;;;5.25;100.00;101847.41;7731774;22;20252;-67
2024/02/27 07:05:50;;;;;;;12.33;11.07;;;;;;;5.27;100.00;101858.88;7732912;22;20212;-66
2024/02/27 07:09:12;;;;;;;15.07;12.70;;;;;;;5.23;100.00;101850.16;7744703;22;20310;-67
2024/02/27 07:12:34;;;;;;;13.77;12.37;;;;;;;5.24;100.00;101859.91;7733826;22;20870;-67
2024/02/27 07:15:55;;;;;;;14.00;11.77;;;;;;;5.23;100.00;101858.19;7727132;22;20215;-67
2024/02/27 07:19:19;;;;;;;11.97;10.77;;;;;;;5.23;100.00;101862.66;7742513;22;20210;-67
2024/02/27 07:22:40;;;;;;;11.57;10.30;;;;;;;5.22;100.00;101859.13;7730773;22;20298;-69
2024/02/27 07:26:02;;;;;;;12.93;11.63;;;;;;;6.20;100.00;101861.03;7727519;22;20219;-69
2024/02/27 07:29:23;;;;;;;12.93;11.20;;;;;;;5.72;100.00;101860.97;7741643;22;20511;-69
2024/02/27 07:32:45;;;;;;;11.10;8.80;;;;;;;5.40;100.00;101868.84;7729125;22;20263;-67
2024/02/27 07:36:06;;;;;;;11.50;10.10;;;;;;;5.37;100.00;101869.03;7730705;22;20274;-69
2024/02/27 07:39:29;;;;;;;11.67;10.57;;;;;;;5.32;100.00;101871.06;7742665;22;20207;-69
2024/02/27 07:42:51;;;;;;;9.50;8.80;;;;;;;5.25;100.00;101877.69;7697696;22;20211;-68
2024/02/27 07:46:13;;;;;;;10.07;9.17;;;;;;;5.26;100.00;101886.53;7727086;22;20457;-67
2024/02/27 07:49:34;;;;;;;8.87;8.00;;;;;;;5.20;100.00;101886.84;7737147;22;20215;-68
2024/02/27 07:52:58;;;;;;;9.43;8.53;;;;;;;5.30;100.00;101885.47;7735098;22;20223;-70
2024/02/27 07:56:19;;;;;;;9.00;8.10;;;;;;;5.32;100.00;101889.78;7687156;22;20215;-68
2024/02/27 07:59:41;;;;;;;8.80;8.00;;;;;;;5.33;100.00;101891.53;7743378;22;20565;-69
2024/02/27 08:03:02;;;;;;;19.37;16.47;;;;;;;5.22;100.00;101893.88;7730109;22;20211;-66
2024/02/27 08:06:26;;;;;;;11.07;9.93;;;;;;;5.19;100.00;101891.34;7732492;22;20549;-68
2024/02/27 08:09:47;;;;;;;9.17;8.20;;;;;;;5.26;100.00;101887.41;7741380;22;20219;-68
2024/02/27 08:13:08;;;;;;;7.90;7.13;;;;;;;5.34;100.00;101895.91;7739429;22;20210;-68
2024/02/27 08:16:31;;;;;;;10.33;7.60;;;;;;;5.46;100.00;101897.09;7726059;22;20294;-67
2024/02/27 08:19:52;;;;;;;9.10;8.30;;;;;;;5.53;100.00;101893.16;7734033;22;20211;-69
2024/02/27 08:23:13;;;;;;;7.57;6.83;;;;;;;5.57;100.00;101898.28;7742192;22;20211;-68
2024/02/27 08:26:34;;;;;;;8.70;7.90;;;;;;;5.63;100.00;101900.63;7733500;22;20625;-68
2024/02/27 08:29:59;;;;;;;7.67;6.93;;;;;;;5.57;100.00;101911.66;7765263;22;20207;-69
2024/02/27 08:33:21;;;;;;;7.70;7.00;;;;;;;6.20;100.00;101907.41;7732815;22;20302;-72
2024/02/27 08:36:41;;;;;;;7.97;7.17;;;;;;;6.07;100.00;101918.88;7732589;22;20215;-68
2024/02/27 08:40:03;;;;;;;7.33;6.63;;;;;;;5.80;100.00;101915.78;7742800;22;20211;-70
2024/02/27 08:43:24;;;;;;;8.83;7.93;;;;;;;5.84;100.00;101916.56;7741696;22;20293;-68
2024/02/27 08:46:45;;;;;;;8.67;7.67;;;;;;;5.88;100.00;101915.44;7728013;22;20530;-67
2024/02/27 08:50:07;;;;;;;8.53;7.73;;;;;;;5.74;100.00;101918.78;7761476;22;20219;-70
2024/02/27 08:53:28;;;;;;;7.80;7.10;;;;;;;5.70;100.00;101919.91;7745641;22;20211;-70
2024/02/27 08:56:51;;;;;;;9.47;8.53;;;;;;;5.65;100.00;101919.28;7691433;22;20223;-70
2024/02/27 09:00:14;;;;;;;9.77;8.87;;;;;;;5.68;100.00;101919.13;7738729;22;20206;-68
2024/02/27 09:03:35;;;;;;;7.73;7.03;;;;;;;5.82;100.00;101915.75;7739590;22;21008;-69
2024/02/27 09:06:57;;;;;;;8.97;8.07;;;;;;;5.91;100.00;101915.25;7721001;22;20718;-69
2024/02/27 09:10:19;;;;;;;8.50;7.67;;;;;;;5.87;100.00;101913.69;7735820;22;20219;-70
2024/02/27 09:13:40;;;;;;;9.00;8.20;;;;;;;5.86;100.00;101910.16;7739806;22;20215;-69
2024/02/27 09:17:00;;;;;;;8.60;7.70;;;;;;;6.02;100.00;101897.72;7725004;22;20214;-69
2024/02/27 09:20:21;;;;;;;8.67;7.97;;;;;;;5.97;100.00;101894.41;7735199;22;20728;-69
2024/02/27 09:23:43;;;;;;;10.37;7.73;;;;;;;6.04;100.00;101898.50;7739533;22;20659;-69
2024/02/27 09:27:05;;;;;;;23.30;20.80;;;;;;;6.10;100.00;101890.13;7736286;22;20444;-69
2024/02/27 09:30:26;;;;;;;13.80;12.40;;;;;;;5.99;100.00;101897.84;7726976;22;20207;-69
2024/02/27 09:33:46;;;;;;;9.27;8.37;;;;;;;5.98;100.00;101888.13;7741788;22;20265;-69
2024/02/27 09:37:07;;;;;;;9.13;8.13;;;;;;;6.02;100.00;101888.81;7734870;22;20211;-70
2024/02/27 09:40:30;;;;;;;9.87;8.87;;;;;;;5.99;100.00;101887.16;7734414;22;20215;-69
2024/02/27 09:43:55;;;;;;;8.93;7.93;;;;;;;5.91;100.00;101878.69;7741862;22;20732;-69
2024/02/27 09:47:16;;;;;;;9.17;8.37;;;;;;;6.18;100.00;101879.00;7728691;22;20257;-70
2024/02/27 09:50:38;;;;;;;9.47;8.57;;;;;;;6.18;100.00;101877.19;7732160;22;20207;-69
2024/02/27 09:54:00;;;;;;;10.60;9.50;;;;;;;6.06;100.00;101880.53;7741415;22;20215;-69
2024/02/27 09:57:23;;;;;;;9.27;8.47;;;;;;;6.17;100.00;101879.97;7710996;22;20222;-69
2024/02/27 10:00:44;;;;;;;7.73;7.03;;;;;;;6.15;100.00;101882.69;7690431;23;20891;-70
2024/02/27 10:04:06;;;;;;;8.00;7.10;;;;;;;6.35;100.00;101882.50;7701219;23;24662;-69
2024/02/27 10:07:28;;;;;;;8.10;7.30;;;;;;;6.40;100.00;101883.06;7689305;23;20298;-70
2024/02/27 10:10:49;;;;;;;8.80;8.00;;;;;;;6.28;100.00;101890.91;7688585;23;20216;-68
2024/02/27 10:14:23;;;;;;;7.77;7.10;;;;;;;6.58;100.00;101893.72;7704095;23;20211;-69
2024/02/27 10:17:44;;;;;;;8.00;7.20;;;;;;;6.51;100.00;101898.56;7686239;23;20224;-70
2024/02/27 10:21:05;;;;;;;8.80;7.90;;;;;;;6.50;100.00;101912.03;7694617;23;20215;-69
2024/02/27 10:24:28;;;;;;;7.20;6.37;;;;;;;6.59;100.00;101911.53;7703716;23;20961;-69
2024/02/27 10:27:49;;;;;;;7.73;6.87;;;;;;;6.57;100.00;101914.28;7699742;23;20227;-69
2024/02/27 10:31:13;;;;;;;17.57;8.37;;;;;;;6.44;100.00;101907.91;7697610;23;20254;-69
2024/02/27 10:34:34;;;;;;;7.70;6.73;;;;;;;6.78;100.00;101905.03;7705744;23;20243;-69
2024/02/27 10:37:56;;;;;;;7.87;6.57;;;;;;;6.91;100.00;101903.41;7698291;23;20223;-70
2024/02/27 10:41:17;;;;;;;7.83;7.23;;;;;;;6.91;100.00;101906.09;7697603;23;20208;-69
2024/02/27 10:44:38;;;;;;;6.63;6.13;;;;;;;6.92;100.00;101906.97;7707416;23;20454;-69
2024/02/27 10:48:02;;;;;;;6.83;6.13;;;;;;;7.03;100.00;101912.56;7694405;23;20211;-69
2024/02/27 10:51:25;;;;;;;7.77;6.33;;;;;;;7.13;100.00;101905.72;7692163;23;20203;-68
2024/02/27 10:54:46;;;;;;;6.10;5.60;;;;;;;7.15;100.00;101906.50;7703229;23;20442;-68
2024/02/27 10:58:07;;;;;;;7.50;6.90;;;;;;;7.20;100.00;101893.66;7707746;22;20219;-69
2024/02/27 11:01:30;;;;;;;6.53;5.93;;;;;;;7.60;100.00;101898.41;7729885;22;20207;-71
2024/02/27 11:04:52;;;;;;;6.73;6.13;;;;;;;7.60;100.00;101897.53;7741005;22;20218;-70
2024/02/27 11:08:15;;;;;;;7.27;6.57;;;;;;;7.63;100.00;101900.03;7737485;22;20207;-67
2024/02/27 11:11:38;;;;;;;7.93;7.30;;;;;;;7.35;100.00;101900.81;7737025;22;21156;-70
2024/02/27 11:15:04;;;;;;;6.30;5.80;;;;;;;7.37;100.00;101898.03;7745294;22;20290;-68
2024/02/27 11:18:29;;;;;;;7.40;6.67;;;;;;;7.34;100.00;101893.75;7715815;22;20571;-69
2024/02/27 11:21:53;;;;;;;6.30;5.67;;;;;;;7.43;100.00;101895.84;7697681;22;20215;-66
2024/02/27 11:25:13;;;;;;;7.67;6.97;;;;;;;7.33;100.00;101897.38;7738481;22;20207;-67
2024/02/27 11:28:35;;;;;;;8.03;7.17;;;;;;;7.17;100.00;101905.47;7744724;22;20210;-68
2024/02/27 11:31:56;;;;;;;7.97;6.73;;;;;;;7.08;100.00;101906.00;7716107;22;20391;-66
2024/02/27 11:35:17;;;;;;;8.00;7.30;;;;;;;7.17;100.00;101912.63;7739032;22;20214;-68
2024/02/27 11:38:42;;;;;;;7.33;6.37;;;;;;;7.15;100.00;101910.03;7744761;22;20461;-68
2024/02/27 11:42:05;;;;;;;7.27;6.67;;;;;;;7.16;100.00;101898.34;7738585;22;20529;-67
2024/02/27 11:45:27;;;;;;;7.13;6.50;;;;;;;7.18;100.00;101892.91;7741056;22;20206;-69
2024/02/27 11:48:48;;;;;;;7.47;6.83;;;;;;;7.35;100.00;101894.59;7739491;22;20215;-68
2024/02/27 11:52:12;;;;;;;6.70;6.10;;;;;;;7.44;100.00;101892.25;7715651;22;20210;-68
2024/02/27 11:55:34;;;;;;;6.73;5.70;;;;;;;7.51;100.00;101887.38;7731141;22;20211;-67
2024/02/27 11:58:55;;;;;;;6.83;6.13;;;;;;;7.65;100.00;101885.59;7742798;22;20215;-67
2024/02/27 12:02:18;;;;;;;11.67;6.17;;;;;;;7.62;100.00;101880.41;7739336;22;20210;-68
2024/02/27 12:05:43;;;;;;;8.30;7.40;;;;;;;7.70;100.00;101871.88;7729423;22;20215;-67
2024/02/27 12:09:04;;;;;;;8.37;7.67;;;;;;;7.62;100.00;101866.97;7741681;22;20203;-68
2024/02/27 12:12:26;;;;;;;6.70;6.10;;;;;;;7.65;100.00;101863.25;7722411;22;20294;-68
2024/02/27 12:15:56;;;;;;;8.07;7.37;;;;;;;7.37;100.00;101864.03;7730736;22;20207;-69
2024/02/27 12:19:17;;;;;;;7.40;6.80;;;;;;;7.70;100.00;101858.44;7739146;22;20207;-69
2024/02/27 12:22:38;;;;;;;6.43;5.93;;;;;;;7.61;100.00;101848.28;7716419;22;20761;-70
2024/02/27 12:26:00;;;;;;;8.17;6.70;;;;;;;7.78;100.00;101848.13;7736421;22;20524;-69
2024/02/27 12:29:25;;;;;;;8.33;6.60;;;;;;;7.98;100.00;101842.38;7743761;22;20549;-68
2024/02/27 12:32:46;;;;;;;7.60;6.47;;;;;;;8.30;100.00;101841.25;7728525;22;20211;-68
2024/02/27 12:36:08;;;;;;;6.97;6.37;;;;;;;8.56;100.00;101831.50;7737519;22;20227;-69
2024/02/27 12:39:29;;;;;;;5.67;5.10;;;;;;;8.26;100.00;101831.63;7742685;22;20223;-66
2024/02/27 12:42:52;;;;;;;6.93;6.30;;;;;;;8.39;100.00;101819.16;7731233;22;20514;-71
2024/02/27 12:46:16;;;;;;;6.77;6.03;;;;;;;8.57;100.00;101819.78;7739373;22;20211;-67
2024/02/27 12:49:37;;;;;;;7.07;5.80;;;;;;;8.61;100.00;101811.44;7733406;22;20219;-66
2024/02/27 12:52:58;;;;;;;6.37;5.87;;;;;;;8.35;100.00;101822.13;7740559;22;20219;-68
2024/02/27 12:56:19;;;;;;;6.60;6.00;;;;;;;8.47;100.00;101813.28;7733309;22;20252;-68
2024/02/27 12:59:40;;;;;;;6.03;5.53;;;;;;;8.35;100.00;101812.25;7743698;22;21689;-69
2024/02/27 13:03:04;;;;;;;10.40;9.40;;;;;;;8.48;100.00;101806.94;7727446;22;20214;-69
2024/02/27 13:06:25;;;;;;;21.97;19.73;;;;;;;8.70;100.00;101802.75;7739683;22;20207;-70
2024/02/27 13:09:47;;;;;;;8.33;7.40;;;;;;;8.90;100.00;101798.75;7746910;22;20215;-69
2024/02/27 13:13:11;;;;;;;6.40;5.87;;;;;;;8.92;100.00;101795.94;7750475;22;20218;-69
2024/02/27 13:16:31;;;;;;;5.07;4.57;;;;;;;9.20;100.00;101801.19;7741033;22;20211;-66
2024/02/27 13:19:54;;;;;;;6.40;5.77;;;;;;;9.23;100.00;101791.06;7742337;22;20462;-68
2024/02/27 13:23:15;;;;;;;6.70;6.03;;;;;;;9.13;100.00;101807.94;7741737;22;20215;-68
2024/02/27 13:26:35;;;;;;;7.90;5.80;;;;;;;9.18;100.00;101803.97;7735284;22;20207;-68
2024/02/27 13:29:56;;;;;;;6.13;5.63;;;;;;;7.90;100.00;101807.97;7740670;22;20450;-67
2024/02/27 13:33:23;;;;;;;6.03;5.47;;;;;;;7.80;100.00;101817.53;7736177;22;20215;-67
2024/02/27 13:36:47;;;;;;;6.27;5.73;;;;;;;7.61;100.00;101808.06;7734899;22;20215;-68
2024/02/27 13:40:09;;;;;;;5.43;4.93;;;;;;;7.14;100.00;101817.16;7736773;22;20553;-67
2024/02/27 13:43:30;;;;;;;6.60;6.00;;;;;;;7.45;100.00;101810.78;7741260;22;20215;-69
2024/02/27 13:46:51;;;;;;;7.13;6.50;;;;;;;7.81;100.00;101811.22;7733796;22;21041;-67
2024/02/27 13:50:11;;;;;;;6.40;5.57;;;;;;;7.94;100.00;101808.63;7736202;22;20211;-67
2024/02/27 13:53:34;;;;;;;6.27;5.70;;;;;;;7.84;100.00;101808.31;7739876;22;20211;-67
2024/02/27 13:56:55;;;;;;;37.00;33.30;;;;;;;8.05;100.00;101801.59;7732385;22;20211;-67
2024/02/27 14:00:17;;;;;;;11.53;10.33;;;;;;;8.17;100.00;101801.78;7740396;22;20219;-67
2024/02/27 14:03:38;;;;;;;6.83;6.13;;;;;;;8.21;100.00;101801.50;7725900;22;20289;-70
2024/02/27 14:06:59;;;;;;;7.97;5.00;;;;;;;8.11;100.00;101805.75;7734079;22;20214;-67
2024/02/27 14:10:21;;;;;;;5.53;5.03;;;;;;;8.11;100.00;101804.88;7743367;22;20214;-67
2024/02/27 14:13:45;;;;;;;6.10;5.60;;;;;;;8.06;100.00;101797.09;7737053;22;20207;-68
2024/02/27 14:17:06;;;;;;;5.37;4.87;;;;;;;8.08;100.00;101793.38;7741057;22;20207;-69
2024/02/27 14:20:27;;;;;;;6.87;6.33;;;;;;;7.98;100.00;101784.19;7739016;22;20215;-68
2024/02/27 14:23:48;;;;;;;6.30;5.70;;;;;;;8.09;100.00;101786.19;7746096;22;20210;-68
2024/02/27 14:27:10;;;;;;;6.47;5.87;;;;;;;7.89;100.00;101794.63;7739272;22;20207;-68
2024/02/27 14:30:32;;;;;;;5.93;5.30;;;;;;;7.49;100.00;101796.22;7740942;22;20207;-67
2024/02/27 14:33:53;;;;;;;5.93;5.43;;;;;;;7.54;100.00;101793.28;7725740;22;20215;-68
2024/02/27 14:37:13;;;;;;;6.93;6.23;;;;;;;7.64;100.00;101792.63;7740560;22;20210;-68
2024/02/27 14:40:34;;;;;;;5.80;5.30;;;;;;;7.46;100.00;101792.88;7741894;22;20215;-69
2024/02/27 14:43:57;;;;;;;6.23;5.73;;;;;;;7.32;100.00;101799.09;7722095;22;20494;-68
2024/02/27 14:47:18;;;;;;;6.03;5.43;;;;;;;7.37;100.00;101799.66;7736918;22;20211;-69
2024/02/27 14:50:39;;;;;;;5.47;5.07;;;;;;;7.38;100.00;101800.53;7739641;22;20976;-67
2024/02/27 14:54:00;;;;;;;6.20;5.70;;;;;;;7.39;100.00;101804.94;7740561;22;20457;-68
2024/02/27 14:57:21;;;;;;;11.83;10.73;;;;;;;7.61;100.00;101806.22;7741398;22;20250;-67
2024/02/27 15:00:43;;;;;;;16.00;13.97;;;;;;;7.68;100.00;101804.88;7734498;22;20280;-67
2024/02/27 15:04:05;;;;;;;6.70;6.10;;;;;;;7.57;100.00;101804.66;7741570;22;20207;-67
2024/02/27 15:07:26;;;;;;;6.60;5.50;;;;;;;7.40;100.00;101809.34;7736011;22;20262;-68
2024/02/27 15:10:46;;;;;;;5.10;4.70;;;;;;;7.40;100.00;101807.53;7734915;22;20211;-68
2024/02/27 15:14:07;;;;;;;6.47;5.87;;;;;;;7.57;100.00;101806.50;7745478;22;20211;-67
2024/02/27 15:17:30;;;;;;;6.07;4.97;;;;;;;7.63;100.00;101809.69;7714948;22;20211;-68
2024/02/27 15:20:52;;;;;;;6.27;5.13;;;;;;;7.20;100.00;101818.59;7738779;22;20211;-65
2024/02/27 15:24:14;;;;;;;6.23;5.63;;;;;;;7.12;100.00;101812.81;7741151;22;20238;-67
2024/02/27 15:27:34;;;;;;;5.87;5.37;;;;;;;7.08;100.00;101816.66;7737880;22;20211;-68
2024/02/27 15:30:55;;;;;;;6.30;5.80;;;;;;;7.17;100.00;101811.63;7731489;22;20207;-67